David Hill

Chief Scout - Plymouth Argyle
22 Feb 2027
Monday
Process

Personality

Adaptability (7) Ambition (6) Controversy (4) Loyalty (18) Pressure (15) Professionalism (14) Sportsmanship (1) Temperament (10)

Profile

Coaching Style Democratic
License National A
Determination 5
Man Management 11
Motivating 5
Discipline 5
Job Satisfaction
50%
Fatigue
0%
Role Chief Scout
Wage 28.7K p/w
Contract 14.03.2027

Performance

Behaviour Normal
Training Effectiveness
21%
Player Development
55%
Injury Prevention
30%
Tactical Implementation
30%

Recent Events

Assessed a player now
Contract negotiation started now
Assessed a player now
Contract negotiation started now
Assessed a player now
Assessed a player now
Contract negotiation started now
Contract negotiation started now

Currently Monitoring

114
Player Club Status Ability Confidence Watched Last Observed Latest Vote
Raymond Agyemang Aduana Stars Active 99 / 75 40% 2 20.02.2027 -
Bohdan Budko AZ Active 106 / 132 40% 1 18.02.2027 -
Timotej Hranica MSK Zilina Active 97 / 83 40% 1 18.02.2027 -
Alexandr Kokorin Aris Active 127 / 138 40% 1 18.02.2027 -
Simone Rabbi Ravenna Active 117 / 108 40% 1 18.02.2027 -
Samuel Adegbenro Dynamo Kyiv Active 109 / 106 40% 1 17.02.2027 -
Jerome Karelse Golden Arrows Active 97 / 91 40% 1 17.02.2027 -
Rui Costa Port Vale Active 115 / 114 40% 1 16.02.2027 -
Papa Ndiaga Yade Oleksandriya Active 123 / 109 40% 1 16.02.2027 -
Lorenzo Insigne Sampdoria Active 128 / 115 40% 2 15.02.2027 -
Anatole Abang USM Alger Active 99 / 107 40% 2 15.02.2027 -
Jordan Roberts Stevenage Active 113 / 122 40% 1 13.02.2027 -
Peter Shalulile Mamelodi Sundowns Active 142 / 114 40% 2 12.02.2027 -
Shayne Lavery Cambridge United Active 110 / 101 40% 1 10.02.2027 -
Kane Drummond Oldham Athletic Active 98 / 89 40% 1 10.02.2027 -
Pedro Marques Apollon Active 106 / 108 40% 2 09.02.2027 -
Miodrag Pivaš Newcastle United Active 115 / 120 40% 1 09.02.2027 -
Gia Nadareishvili AS Trencin Active 92 / 101 40% 1 09.02.2027 -
Beryly Lubala CSKA 1948 Active 108 / 121 40% 1 07.02.2027 -
Josh Windass Wrexham Active 127 / 116 40% 1 07.02.2027 -
Themba Manyama Ajax Cape Town Active 112 / 88 40% 2 06.02.2027 -
Khama Tau Black Aces Active 104 / 93 40% 1 06.02.2027 -
Sam Nombe Milton Keynes Dons Active 102 / 106 40% 1 04.02.2027 -
Tom Bradshaw Feirense Active 100 / 104 40% 1 04.02.2027 -
Brandon Hanlan Doncaster Rovers Active 94 / 107 40% 1 03.02.2027 -
Kwame Opoku Asante Kotoko Active 114 / 115 40% 1 02.02.2027 -
Vasyl Bundash Epicentr Active 101 / 112 40% 1 02.02.2027 -
Sergey Chernov Zenit Active 87 / 106 40% 1 02.02.2027 -
Surprise Manthosi Polokwane City Active 78 / 82 40% 1 31.01.2027 -
Juan Pablo De la Reta Maipú Active 102 / 127 40% 1 31.01.2027 -
Samuel Tetteh Wa All Stars Active 93 / 103 40% 1 29.01.2027 -
Riccardo De Zen Renate Active 94 / 92 40% 2 28.01.2027 -
Samuel Lucero Defensa y Justicia Active 123 / 126 40% 1 28.01.2027 -
Luther Zwane Platinum Stars Active 99 / 115 40% 1 28.01.2027 -
Matty Stevens AFC Wimbledon Active 112 / 92 40% 1 28.01.2027 -
Jaygo van Ommeren Utrecht Active 109 / 103 40% 1 26.01.2027 -
Davinchi Getafe Active 120 / 122 40% 1 26.01.2027 -
Lucan Louw AS Police Active 84 / 94 40% 2 25.01.2027 -
Siyabonga Mabunda FCSB Active 98 / 89 40% 1 25.01.2027 -
Bernardo Lima Porto Active 85 / 108 40% 1 20.01.2027 -
Elie N'Gatta Sochaux Active 98 / 91 40% 1 18.01.2027 -
Isaac Frimpong Hearts of Oak Active 67 / 89 40% 1 18.01.2027 -
Luther Ngcobo Ajax Cape Town Active 93 / 106 40% 3 16.01.2027 -
Gonçalo Oliveira Benfica Active 105 / 126 40% 1 14.01.2027 -
Luca Barani Forli Active 86 / 105 40% 1 14.01.2027 -
Lucas Mbamba Westerlo Active 78 / 102 40% 1 10.01.2027 -
Sabil Hansen Randers Active 107 / 132 40% 1 09.01.2027 -
Nikita Kononenko Metallurg Active 82 / 73 40% 1 09.01.2027 -
Manqoba Mlele AS Police Active 91 / 70 40% 3 08.01.2027 -
Elias Lenz Huesca Active 89 / 89 40% 1 08.01.2027 -
Charlie Webster Burton Albion Active 117 / 121 55% 1 06.01.2027 -
Vinícius Lira Santos Active 108 / 113 40% 1 06.01.2027 -
Andrey Estupiñán Millonarios Rejected 120 / 120 66% 1 01.01.2027 Reject
Dylan Duffy Chesterfield Active 89 / 98 55% 1 01.01.2027 -
Dmitry Borodin Dinamo St Petersburg Active 53 / 57 40% 1 31.12.2026 -
Cemran Dansin Orlando Pirates Rejected 101 / 136 40% 3 07.12.2026 Reject
Santiago Fernández Talleres Rejected 116 / 115 40% 1 07.12.2026 Needs More Info
Jakob Vester Sandefjord Active 123 / 99 40% 1 18.11.2026 -
Andrija Bulatović RC Lens Active 109 / 137 40% 1 18.11.2026 -
Brooklyn Raines New England Revolution Active 124 / 122 40% 2 07.11.2026 -
Daniel Banjaqui Benfica Active 121 / 127 40% 2 06.11.2026 -
Noël Atom Elche Active 90 / 96 40% 2 06.11.2026 -
Simphiwe Selepe Orlando Pirates Active 123 / 122 40% 3 02.11.2026 -
Julián Bazán New York Red Bulls Active 131 / 118 40% 2 02.11.2026 -
Pedro Bravo FC Midtjylland Active 108 / 149 40% 1 23.10.2026 -
Osvald Søe San Diego Football Club Active 100 / 102 40% 2 19.10.2026 -
Sean Fusire Sheffield Wednesday Active 87 / 109 40% 2 19.10.2026 -
Luther Phiri SuperSport United Active 108 / 144 40% 2 18.10.2026 -
Ovidiu Hagi Astra Active 94 / 126 40% 1 16.10.2026 -
Jens Hjertø-Dahl Hull City Active 120 / 138 40% 1 14.10.2026 -
Manu Duah San Diego Football Club Active 105 / 109 40% 1 14.10.2026 -
Milan Roganović Partizan Active 116 / 110 40% 1 12.10.2026 -
Enzo Cardozo Almirante Brown Active 117 / 124 40% 1 12.10.2026 -
Stanley Joseph Remo Stars Active 68 / 90 40% 1 11.10.2026 -
Philippe Ndinga Philadelphia Union Active 97 / 106 40% 3 10.10.2026 -
Juan Manuel Villalba Tigre Active 122 / 115 40% 1 07.10.2026 -
Simón Pinto Palestino Active 107 / 99 40% 1 06.10.2026 -
Law McCabe Middlesbrough Active 103 / 102 40% 1 05.10.2026 -
Chisom Ogbun Warri Wolves Active 98 / 107 40% 1 05.10.2026 -
Mauricio Amaro Atlanta United FC Active 109 / 137 40% 2 19.09.2026 -
James Dornelly Peterborough United Active 112 / 92 40% 1 19.09.2026 -
Arjan Malić Sturm Graz Active 124 / 117 40% 1 17.09.2026 -
Chibueze Oputa Rangers International Active 82 / 91 40% 1 17.09.2026 -
Kieran Chandler Minnesota United FC Active 99 / 73 40% 1 16.09.2026 -
Jacob Wright Norwich City Active 111 / 111 40% 1 13.09.2026 -
Kwandakwesizwe Madonsela Golden Arrows Active 64 / 88 40% 1 12.09.2026 -
Luis Otávio Orlando City Active 88 / 100 40% 1 12.09.2026 -
Santiago Sosa Yung Defensa y Justicia Active 121 / 125 40% 1 11.09.2026 -
Gladson Appiah Liberty Professionals Active 94 / 101 40% 2 09.09.2026 -
Ahmed Akinyele Remo Stars Active 81 / 97 40% 2 08.09.2026 -
Ronald Donkor New York Red Bulls Active 109 / 99 40% 1 08.09.2026 -
Elías Báez Atlanta United FC Active 121 / 121 40% 5 05.09.2026 -
Federico Acosta Miramar Misiones Active 106 / 101 40% 2 05.09.2026 -
Tyler Fredricson Valladolid Active 114 / 116 40% 1 02.09.2026 -
Mbekezeli Mbokazi Chicago Fire Active 111 / 146 40% 4 30.08.2026 -
Ian Garguez Palestino Active 112 / 109 40% 1 27.08.2026 -
Lucas Quintana Cerro Porteno Active 117 / 129 40% 1 25.08.2026 -
Timoteo Chamorro Talleres Active 114 / 116 40% 1 24.08.2026 -
Tobías Andrada River Plate Active 101 / 116 40% 1 17.08.2026 -
Jabu Mokone Orlando Pirates Active 96 / 80 40% 1 16.08.2026 -
José Cavadia America de Cali Active 110 / 106 40% 1 16.08.2026 -
Olalekan Adeleke Remo Stars Active 67 / 94 40% 1 14.08.2026 -
Agustín Obregón River Plate Active 116 / 117 40% 1 13.08.2026 -
Gift Udoh Ikorodu City Active 85 / 87 40% 1 13.08.2026 -
Jacob John Bendel Insurance Active 62 / 78 40% 1 12.08.2026 -
Ifeanyi Okechukwu Nasarawa United Active 88 / 107 40% 1 10.08.2026 -
Reed Baker-Whiting Nashville SC Active 122 / 107 40% 1 09.08.2026 -
Oscar Verhoeven San Diego Football Club Active 84 / 82 40% 1 08.08.2026 -
Imrana Ahmad Kano Pillars Active 69 / 104 40% 1 06.08.2026 -
Amin Boudri Los Angeles Football Club Active 110 / 105 40% 1 04.08.2026 -
Ilay Feingold New England Revolution Active 123 / 130 40% 1 04.08.2026 -
Stuart Hawkins Seattle Sounders Active 94 / 84 40% 1 04.08.2026 -
Cielo Tschantret Sporting Kansas City Active 102 / 73 40% 1 02.08.2026 -
Promise Awosanmi Shooting Stars Active 70 / 104 40% 1 02.08.2026 -